Time;durP1;ratioP1;P1;durP2;ratioP2;P2;SDS_P1;SDS_P2;PMS_P1;PMS_P2;Temp;Humidity;BMP_temperature;BMP_pressure;BME280_temperature;BME280_humidity;BME280_pressure;Samples;Min_cycle;Max_cycle;Signal;HPM_P1;HPM_P2
2023/01/08 00:02:00;;;;;;;10.70;4.55;;;10.60;87.00;;;;;;5012283;28;20087;-77
2023/01/08 00:04:26;;;;;;;9.18;4.18;;;10.60;86.90;;;;;;5002883;28;20029;-76
2023/01/08 00:06:52;;;;;;;8.02;4.28;;;10.50;87.10;;;;;;5004661;28;20478;-77
2023/01/08 00:09:17;;;;;;;12.55;4.13;;;10.50;87.10;;;;;;5001021;28;20029;-77
2023/01/08 00:11:43;;;;;;;10.68;4.60;;;10.50;87.00;;;;;;5008242;28;20030;-76
2023/01/08 00:14:10;;;;;;;9.40;3.80;;;10.50;87.00;;;;;;5006764;28;20477;-76
2023/01/08 00:16:36;;;;;;;12.27;3.33;;;10.40;86.70;;;;;;5013698;28;20040;-78
2023/01/08 00:19:02;;;;;;;8.93;3.55;;;10.30;85.50;;;;;;5010309;28;20096;-76
2023/01/08 00:21:28;;;;;;;8.48;3.28;;;10.30;85.10;;;;;;5003270;28;20121;-76
2023/01/08 00:23:54;;;;;;;11.05;3.72;;;10.30;85.10;;;;;;5014696;28;20022;-78
2023/01/08 00:26:19;;;;;;;11.90;3.13;;;10.20;85.30;;;;;;5003626;28;20462;-76
2023/01/08 00:28:45;;;;;;;9.60;3.65;;;10.20;85.50;;;;;;5003821;28;20100;-78
2023/01/08 00:31:12;;;;;;;8.35;3.50;;;10.10;85.60;;;;;;5002855;28;20088;-77
2023/01/08 00:33:39;;;;;;;9.75;3.42;;;10.20;85.70;;;;;;5004812;28;20022;-76
2023/01/08 00:36:10;;;;;;;8.32;3.42;;;10.20;85.80;;;;;;5002526;28;20041;-76
2023/01/08 00:38:36;;;;;;;11.23;3.03;;;10.20;85.70;;;;;;5004794;28;20021;-77
2023/01/08 00:41:02;;;;;;;10.27;3.08;;;10.10;85.20;;;;;;5011545;28;20040;-77
2023/01/08 00:43:28;;;;;;;7.88;2.72;;;10.10;84.60;;;;;;5005883;28;20397;-77
2023/01/08 00:45:54;;;;;;;7.53;2.88;;;10.10;83.60;;;;;;5008305;28;20022;-78
2023/01/08 00:48:21;;;;;;;10.40;2.70;;;10.00;83.60;;;;;;5002543;28;20029;-76
2023/01/08 00:50:48;;;;;;;10.23;2.33;;;9.90;83.50;;;;;;5009113;28;20037;-77
2023/01/08 00:53:13;;;;;;;7.57;2.42;;;9.90;83.60;;;;;;5009843;28;20038;-76
2023/01/08 00:55:39;;;;;;;8.25;2.78;;;9.80;83.30;;;;;;4999048;28;20593;-80
2023/01/08 00:58:05;;;;;;;5.80;2.20;;;9.80;83.00;;;;;;5003250;28;20594;-77
2023/01/08 01:00:31;;;;;;;10.55;2.63;;;9.70;82.70;;;;;;5001871;28;20028;-77
2023/01/08 01:02:56;;;;;;;7.45;1.90;;;9.70;82.60;;;;;;5007037;28;20033;-78
2023/01/08 01:05:22;;;;;;;10.05;2.75;;;9.60;82.70;;;;;;5008362;28;20514;-76
2023/01/08 01:07:48;;;;;;;9.45;2.40;;;9.70;82.40;;;;;;5004148;28;20046;-78
2023/01/08 01:10:15;;;;;;;7.70;2.22;;;9.70;82.20;;;;;;4998389;28;20100;-77
2023/01/08 01:12:41;;;;;;;12.90;2.83;;;9.60;82.20;;;;;;5015981;28;20037;-76
2023/01/08 01:15:09;;;;;;;6.68;2.38;;;9.60;82.40;;;;;;5005120;28;20046;-77
2023/01/08 01:17:38;;;;;;;6.45;2.20;;;9.60;82.30;;;;;;5006458;28;20033;-78
2023/01/08 01:20:05;;;;;;;7.68;2.40;;;9.60;82.40;;;;;;5011415;28;20033;-77
2023/01/08 01:22:31;;;;;;;10.30;2.65;;;9.60;82.70;;;;;;5005980;28;20112;-78
2023/01/08 01:24:57;;;;;;;9.38;2.50;;;9.60;82.80;;;;;;5008825;28;20181;-76
2023/01/08 01:27:24;;;;;;;8.43;2.22;;;9.60;82.90;;;;;;5010748;28;20537;-77
2023/01/08 01:29:51;;;;;;;11.50;3.08;;;9.60;83.00;;;;;;5017895;28;20026;-79
2023/01/08 01:32:16;;;;;;;7.38;2.65;;;9.60;83.10;;;;;;5001137;28;20122;-77
2023/01/08 01:34:42;;;;;;;6.88;2.20;;;9.50;83.30;;;;;;4996093;28;20109;-78
2023/01/08 01:37:10;;;;;;;9.50;2.60;;;9.50;83.50;;;;;;5010707;28;20593;-77
2023/01/08 01:39:36;;;;;;;6.30;2.55;;;9.50;83.80;;;;;;5010105;28;20095;-76
2023/01/08 01:42:02;;;;;;;8.52;2.50;;;9.50;83.90;;;;;;4997261;28;20030;-78
2023/01/08 01:44:43;;;;;;;7.80;2.20;;;9.50;84.00;;;;;;5001893;28;20128;-77
2023/01/08 01:47:31;;;;;;;7.00;2.88;;;9.60;84.20;;;;;;5006221;28;20038;-78
2023/01/08 01:50:07;;;;;;;9.68;2.50;;;9.60;84.30;;;;;;5007927;28;20025;-78
2023/01/08 01:52:37;;;;;;;8.57;2.67;;;9.50;84.50;;;;;;5004004;28;20739;-77
2023/01/08 01:55:07;;;;;;;10.93;3.15;;;9.60;84.70;;;;;;5008160;28;20121;-76
2023/01/08 01:57:33;;;;;;;8.63;2.30;;;9.50;84.80;;;;;;5003625;28;20038;-75
2023/01/08 02:00:03;;;;;;;9.23;2.70;;;9.60;84.80;;;;;;5018885;28;20085;-77
2023/01/08 02:02:31;;;;;;;8.23;2.42;;;9.60;84.90;;;;;;5003995;28;20038;-77
2023/01/08 02:04:57;;;;;;;9.00;3.05;;;9.60;85.10;;;;;;5005114;28;20022;-77
2023/01/08 02:07:38;;;;;;;10.23;3.20;;;9.60;85.20;;;;;;5001061;28;20029;-76
2023/01/08 02:10:30;;;;;;;10.27;2.22;;;9.60;85.40;;;;;;5014425;28;20512;-77
2023/01/08 02:13:16;;;;;;;11.18;2.75;;;9.50;85.40;;;;;;4999647;28;20448;-77
2023/01/08 02:15:44;;;;;;;8.80;3.38;;;9.40;85.50;;;;;;5000079;28;20049;-78
2023/01/08 02:18:19;;;;;;;12.55;3.10;;;9.40;85.70;;;;;;5006929;28;20704;-76
2023/01/08 02:20:56;;;;;;;;;;;9.30;85.90;;;;;;5004156;28;20030;-75
2023/01/08 02:23:45;;;;;;;8.90;2.60;;;9.30;85.90;;;;;;5014791;28;19974;-76
2023/01/08 02:26:33;;;;;;;10.02;2.97;;;9.30;85.70;;;;;;5015596;28;20129;-78
2023/01/08 02:29:17;;;;;;;9.88;2.72;;;9.30;85.70;;;;;;5005016;28;20036;-75
2023/01/08 02:31:43;;;;;;;11.65;3.08;;;9.30;85.70;;;;;;5007913;28;20034;-75
2023/01/08 02:34:11;;;;;;;10.60;3.00;;;9.30;85.70;;;;;;5004296;28;20061;-76
2023/01/08 02:36:44;;;;;;;10.63;2.33;;;9.30;85.60;;;;;;5008091;28;20038;-75
2023/01/08 02:39:14;;;;;;;9.88;2.85;;;9.20;85.60;;;;;;5006603;28;20014;-77
2023/01/08 02:41:55;;;;;;;12.07;2.88;;;9.20;85.60;;;;;;5024092;28;20034;-76
2023/01/08 02:44:31;;;;;;;10.35;2.67;;;9.20;85.60;;;;;;5011215;28;20112;-76
2023/01/08 02:46:58;;;;;;;9.98;3.08;;;9.20;85.60;;;;;;5006319;28;20671;-75
2023/01/08 02:49:29;;;;;;;10.40;2.72;;;9.20;85.80;;;;;;5014741;28;20497;-77
2023/01/08 02:51:56;;;;;;;11.65;3.28;;;9.20;85.90;;;;;;5008284;28;20061;-78
2023/01/08 02:54:30;;;;;;;10.93;2.97;;;9.20;86.10;;;;;;5004437;28;20030;-76
2023/01/08 02:57:04;;;;;;;13.15;3.15;;;9.20;86.60;;;;;;5012969;28;20045;-76
2023/01/08 02:59:32;;;;;;;9.82;3.42;;;9.20;86.70;;;;;;4999702;28;20025;-75
2023/01/08 03:01:59;;;;;;;10.27;3.45;;;9.20;86.90;;;;;;5008604;28;20033;-76
2023/01/08 03:04:26;;;;;;;11.07;3.13;;;9.10;87.10;;;;;;5004814;28;20026;-77
2023/01/08 03:06:52;;;;;;;9.73;3.53;;;9.10;87.30;;;;;;5001073;28;20038;-75
2023/01/08 03:09:19;;;;;;;10.98;3.60;;;9.10;87.30;;;;;;5004559;28;20030;-77
2023/01/08 03:12:16;;;;;;;8.50;3.30;;;9.00;87.80;;;;;;5017335;28;20509;-77
2023/01/08 03:14:57;;;;;;;11.50;3.28;;;9.00;87.80;;;;;;5002596;28;20046;-78
2023/01/08 03:17:32;;;;;;;11.90;3.30;;;8.90;87.90;;;;;;5005211;28;20072;-76
2023/01/08 03:20:10;;;;;;;11.38;2.78;;;8.80;87.80;;;;;;5003426;28;20045;-79
2023/01/08 03:22:39;;;;;;;12.60;3.13;;;8.80;87.60;;;;;;5004657;28;20470;-76
2023/01/08 03:25:06;;;;;;;7.00;2.13;;;8.70;87.30;;;;;;5004407;28;20071;-78
2023/01/08 03:27:37;;;;;;;9.63;2.50;;;8.60;87.10;;;;;;5014072;28;20045;-77
2023/01/08 03:30:04;;;;;;;13.20;2.95;;;8.60;86.90;;;;;;5007189;28;20014;-76
2023/01/08 03:32:31;;;;;;;8.13;2.22;;;8.60;86.50;;;;;;5001064;28;20030;-76
2023/01/08 03:34:59;;;;;;;7.97;2.30;;;8.60;86.10;;;;;;5007904;28;20037;-76
2023/01/08 03:37:31;;;;;;;10.15;2.20;;;8.50;86.00;;;;;;5003296;28;20120;-78
2023/01/08 03:40:16;;;;;;;8.02;2.28;;;8.40;85.90;;;;;;5007604;28;20591;-78
2023/01/08 03:42:42;;;;;;;9.10;2.55;;;8.30;85.80;;;;;;5005697;28;20042;-76
2023/01/08 03:45:08;;;;;;;10.05;2.30;;;8.30;85.90;;;;;;5004155;28;20030;-76
2023/01/08 03:47:36;;;;;;;10.13;2.67;;;8.30;85.90;;;;;;5001230;28;20038;-76
2023/01/08 03:50:07;;;;;;;12.60;3.38;;;8.30;86.00;;;;;;5005186;28;20030;-76
2023/01/08 03:52:32;;;;;;;12.23;2.65;;;8.20;85.90;;;;;;5002013;28;20049;-78
2023/01/08 03:54:58;;;;;;;6.10;2.10;;;8.10;86.10;;;;;;5007936;28;20030;-75
2023/01/08 03:57:24;;;;;;;7.40;1.80;;;8.10;86.10;;;;;;5007682;28;20506;-76
2023/01/08 03:59:49;;;;;;;12.27;2.30;;;8.10;86.10;;;;;;5008287;28;20021;-76
2023/01/08 04:02:16;;;;;;;9.30;2.58;;;8.10;86.10;;;;;;5008548;28;20087;-78
2023/01/08 04:04:41;;;;;;;14.38;2.65;;;8.10;86.10;;;;;;5005085;28;20056;-79
2023/01/08 04:07:09;;;;;;;10.68;2.08;;;8.10;86.00;;;;;;5009273;28;20467;-75
2023/01/08 04:09:34;;;;;;;11.40;2.40;;;8.00;85.90;;;;;;5010081;28;20022;-75
2023/01/08 04:12:00;;;;;;;12.25;2.35;;;8.00;85.90;;;;;;5014851;28;20509;-77
2023/01/08 04:14:26;;;;;;;10.10;2.35;;;7.90;85.90;;;;;;5009094;28;20508;-75
2023/01/08 04:16:52;;;;;;;11.40;3.38;;;7.90;85.90;;;;;;5005915;28;20030;-78
2023/01/08 04:19:17;;;;;;;9.98;2.50;;;7.80;86.00;;;;;;5009871;28;20028;-76
2023/01/08 04:21:43;;;;;;;7.45;2.55;;;7.80;86.10;;;;;;5010871;28;20521;-75
2023/01/08 04:24:10;;;;;;;10.32;2.33;;;7.80;86.10;;;;;;5014973;28;20553;-77
2023/01/08 04:26:36;;;;;;;13.25;2.20;;;7.80;86.10;;;;;;5012153;28;20109;-75
2023/01/08 04:29:03;;;;;;;9.18;1.90;;;7.80;86.00;;;;;;5010937;28;20104;-77
2023/01/08 04:31:28;;;;;;;9.50;1.75;;;7.70;86.10;;;;;;5008523;28;20044;-76
2023/01/08 04:33:54;;;;;;;10.23;2.28;;;7.70;86.10;;;;;;5004183;28;20030;-75
2023/01/08 04:36:20;;;;;;;9.65;2.30;;;7.70;86.00;;;;;;5009098;28;20069;-78
2023/01/08 04:38:46;;;;;;;7.93;2.10;;;7.70;85.90;;;;;;5004893;28;20048;-77
2023/01/08 04:41:11;;;;;;;11.02;2.25;;;7.60;86.00;;;;;;5010303;28;20034;-77
2023/01/08 04:43:37;;;;;;;8.95;2.15;;;7.60;86.30;;;;;;5008307;28;20030;-78
2023/01/08 04:46:06;;;;;;;8.70;2.42;;;7.60;86.30;;;;;;5011116;28;20029;-75
2023/01/08 04:48:32;;;;;;;10.63;3.00;;;7.60;86.20;;;;;;4998827;28;20022;-75
2023/01/08 04:50:59;;;;;;;14.23;2.80;;;7.60;86.20;;;;;;5002985;28;20391;-75
2023/01/08 04:53:25;;;;;;;9.63;2.42;;;7.60;86.30;;;;;;5003796;28;20025;-75
2023/01/08 04:55:50;;;;;;;9.40;2.63;;;7.60;86.20;;;;;;5005330;28;20068;-77
2023/01/08 04:58:16;;;;;;;10.48;2.83;;;7.60;86.40;;;;;;5005726;28;20674;-75
2023/01/08 05:00:42;;;;;;;12.60;2.70;;;7.50;86.40;;;;;;5002021;28;20042;-74
2023/01/08 05:03:07;;;;;;;9.45;2.88;;;7.50;86.40;;;;;;5009555;28;20152;-76
2023/01/08 05:05:34;;;;;;;11.48;2.85;;;7.50;86.40;;;;;;5008961;28;20470;-75
2023/01/08 05:08:00;;;;;;;15.88;2.70;;;7.60;86.50;;;;;;4995197;28;20089;-74
2023/01/08 05:10:25;;;;;;;9.13;2.28;;;7.50;86.40;;;;;;5006178;28;20046;-78
2023/01/08 05:12:51;;;;;;;15.90;2.60;;;7.50;86.40;;;;;;5005947;28;20075;-76
2023/01/08 05:15:17;;;;;;;12.05;2.40;;;7.50;86.40;;;;;;5007490;28;20060;-78
2023/01/08 05:17:42;;;;;;;13.73;3.65;;;7.50;86.60;;;;;;5007552;28;20053;-75
2023/01/08 05:20:08;;;;;;;8.00;2.10;;;7.50;86.50;;;;;;5002247;28;20029;-75
2023/01/08 05:22:34;;;;;;;12.75;2.80;;;7.40;86.60;;;;;;4997480;28;20029;-75
2023/01/08 05:25:00;;;;;;;11.38;3.15;;;7.50;86.70;;;;;;5011662;28;20037;-78
2023/01/08 05:27:27;;;;;;;11.70;2.33;;;7.50;86.60;;;;;;5016588;28;20489;-76
2023/01/08 05:29:53;;;;;;;14.20;3.83;;;7.50;86.60;;;;;;5008562;28;20093;-76
2023/01/08 05:32:19;;;;;;;9.07;2.60;;;7.50;86.70;;;;;;5002612;28;20062;-77
2023/01/08 05:34:45;;;;;;;12.13;2.40;;;7.50;86.70;;;;;;4994397;28;20045;-78
2023/01/08 05:37:11;;;;;;;11.93;2.47;;;7.50;86.60;;;;;;5001089;28;20033;-75
2023/01/08 05:39:37;;;;;;;12.75;2.58;;;7.60;86.70;;;;;;5001883;28;20040;-75
2023/01/08 05:42:03;;;;;;;13.10;3.00;;;7.50;86.70;;;;;;5000993;28;20038;-77
2023/01/08 05:44:29;;;;;;;11.27;2.53;;;7.50;86.80;;;;;;4999101;28;20552;-75
2023/01/08 05:46:55;;;;;;;13.65;2.45;;;7.50;86.80;;;;;;5005931;28;20034;-78
2023/01/08 05:49:22;;;;;;;11.40;2.25;;;7.50;86.80;;;;;;5009980;28;20025;-76
2023/01/08 05:51:48;;;;;;;12.93;3.08;;;7.50;86.90;;;;;;4998902;28;20639;-74
2023/01/08 05:54:14;;;;;;;17.20;2.72;;;7.50;86.90;;;;;;5000831;28;20057;-78
2023/01/08 05:56:42;;;;;;;15.05;3.00;;;7.60;86.80;;;;;;5007811;28;20034;-75
2023/01/08 05:59:10;;;;;;;20.98;3.00;;;7.60;86.80;;;;;;4999553;28;20033;-75
2023/01/08 06:01:36;;;;;;;12.30;2.38;;;7.60;86.80;;;;;;5003297;28;20763;-78
2023/01/08 06:04:01;;;;;;;13.65;2.88;;;7.60;86.80;;;;;;4999944;28;20030;-75
2023/01/08 06:06:27;;;;;;;13.25;2.65;;;7.60;86.90;;;;;;4998001;28;20034;-75
2023/01/08 06:08:53;;;;;;;12.20;2.80;;;7.60;86.80;;;;;;5007046;28;20036;-78
2023/01/08 06:11:18;;;;;;;11.50;2.88;;;7.60;86.80;;;;;;5004152;28;20049;-75
2023/01/08 06:13:44;;;;;;;13.80;3.73;;;7.60;86.90;;;;;;4965842;28;1309105;-78
2023/01/08 06:16:11;;;;;;;12.77;2.88;;;7.60;86.80;;;;;;5006231;28;20034;-75
2023/01/08 06:18:36;;;;;;;16.55;2.83;;;7.60;86.80;;;;;;5003633;28;20548;-76
2023/01/08 06:21:03;;;;;;;10.48;2.50;;;7.60;86.70;;;;;;5007070;28;20042;-78
2023/01/08 06:23:30;;;;;;;10.60;2.35;;;7.60;86.70;;;;;;5002485;28;20033;-75
2023/01/08 06:25:57;;;;;;;14.30;3.47;;;7.60;86.70;;;;;;5005651;28;20049;-78
2023/01/08 06:28:23;;;;;;;12.73;2.40;;;7.60;86.70;;;;;;4999974;28;20475;-76
2023/01/08 06:30:49;;;;;;;11.30;2.33;;;7.60;86.70;;;;;;5015030;28;20037;-75
2023/01/08 06:33:15;;;;;;;9.48;2.35;;;7.50;86.80;;;;;;5009293;28;20670;-78
2023/01/08 06:35:41;;;;;;;11.32;2.67;;;7.50;87.10;;;;;;5010079;28;20049;-76
2023/01/08 06:38:07;;;;;;;13.55;2.83;;;7.50;87.20;;;;;;5001396;28;20250;-75
2023/01/08 06:40:32;;;;;;;12.07;2.55;;;7.40;87.20;;;;;;5012890;28;20025;-76
2023/01/08 06:43:04;;;;;;;12.27;2.50;;;7.50;87.40;;;;;;5011742;28;20123;-75
2023/01/08 06:45:30;;;;;;;10.00;2.33;;;7.40;87.50;;;;;;4998547;28;20029;-75
2023/01/08 06:48:00;;;;;;;12.07;2.60;;;7.40;87.60;;;;;;5002083;28;20034;-77
2023/01/08 06:50:26;;;;;;;15.23;3.33;;;7.40;87.70;;;;;;5005990;28;20026;-76
2023/01/08 06:52:55;;;;;;;20.77;3.38;;;7.30;87.90;;;;;;5005257;28;20514;-74
2023/01/08 06:55:22;;;;;;;14.95;3.35;;;7.40;88.10;;;;;;5006034;28;20124;-77
2023/01/08 06:57:51;;;;;;;17.85;6.07;;;7.40;88.20;;;;;;5008618;28;20029;-75
2023/01/08 07:00:17;;;;;;;21.85;6.22;;;7.40;88.20;;;;;;5000706;28;20030;-75
2023/01/08 07:02:43;;;;;;;16.10;8.80;;;7.40;88.20;;;;;;5004466;28;20466;-77
2023/01/08 07:05:09;;;;;;;18.38;8.48;;;7.30;88.70;;;;;;5004627;28;20061;-79
2023/01/08 07:07:34;;;;;;;26.00;11.10;;;7.30;88.70;;;;;;5004997;28;20116;-75
2023/01/08 07:10:00;;;;;;;26.55;13.25;;;7.30;88.70;;;;;;5004290;28;20038;-76
2023/01/08 07:12:26;;;;;;;23.00;12.27;;;7.30;89.00;;;;;;5002639;28;20499;-74
2023/01/08 07:14:51;;;;;;;24.67;12.70;;;7.30;89.20;;;;;;5004189;28;20112;-76
2023/01/08 07:17:17;;;;;;;23.48;11.80;;;7.20;89.10;;;;;;5002869;28;20439;-76
2023/01/08 07:19:43;;;;;;;23.77;12.00;;;7.20;89.30;;;;;;5004046;28;20434;-75
2023/01/08 07:22:08;;;;;;;24.08;11.10;;;7.20;89.30;;;;;;5003737;28;20552;-79
2023/01/08 07:24:34;;;;;;;19.30;10.68;;;7.10;89.50;;;;;;5003408;28;20062;-77
2023/01/08 07:26:59;;;;;;;16.38;5.75;;;7.10;89.50;;;;;;5008538;28;20038;-76
2023/01/08 07:29:26;;;;;;;10.90;4.40;;;7.10;89.70;;;;;;5004474;28;20383;-78
2023/01/08 07:31:52;;;;;;;12.93;3.65;;;7.10;89.80;;;;;;5004306;28;20037;-76
2023/01/08 07:34:18;;;;;;;17.17;4.20;;;7.00;89.90;;;;;;5000319;28;20053;-76
2023/01/08 07:36:43;;;;;;;17.17;4.97;;;7.10;90.20;;;;;;5007103;28;20034;-76
2023/01/08 07:39:09;;;;;;;21.75;4.85;;;7.00;90.20;;;;;;5004850;28;20026;-76
2023/01/08 07:41:35;;;;;;;12.25;3.30;;;7.00;90.30;;;;;;5002246;28;20069;-75
2023/01/08 07:44:01;;;;;;;14.55;3.30;;;7.10;90.50;;;;;;5004915;28;20597;-76
2023/01/08 07:46:26;;;;;;;15.65;4.00;;;7.10;90.50;;;;;;5003152;28;20125;-76
2023/01/08 07:48:52;;;;;;;13.25;3.67;;;7.00;90.40;;;;;;5004111;28;20641;-75
2023/01/08 07:51:18;;;;;;;14.27;4.22;;;7.10;90.60;;;;;;5002883;28;20034;-75
2023/01/08 07:53:43;;;;;;;19.08;3.85;;;7.10;90.60;;;;;;5007344;28;20034;-75
2023/01/08 07:56:10;;;;;;;13.52;3.70;;;7.10;90.70;;;;;;5008254;28;20095;-75
2023/01/08 07:58:36;;;;;;;13.05;4.20;;;7.10;90.70;;;;;;5010463;28;20128;-78
2023/01/08 08:01:06;;;;;;;12.55;3.50;;;7.10;90.70;;;;;;5003236;28;20077;-75
2023/01/08 08:03:32;;;;;;;14.80;3.47;;;7.10;90.90;;;;;;5005569;28;20034;-75
2023/01/08 08:06:00;;;;;;;16.45;3.55;;;7.00;90.90;;;;;;5006846;28;20066;-76
2023/01/08 08:08:26;;;;;;;15.05;3.40;;;7.10;90.90;;;;;;5008649;28;20030;-77
2023/01/08 08:10:51;;;;;;;13.10;4.15;;;7.10;90.90;;;;;;5009442;28;20022;-75
2023/01/08 08:13:17;;;;;;;17.45;3.80;;;7.10;90.90;;;;;;5009374;28;20060;-77
2023/01/08 08:15:43;;;;;;;12.05;3.40;;;7.10;90.90;;;;;;5009969;28;20453;-75
2023/01/08 08:18:09;;;;;;;14.07;4.28;;;7.10;91.00;;;;;;5011536;28;20460;-75
2023/01/08 08:20:35;;;;;;;9.90;3.25;;;7.10;91.00;;;;;;5008850;28;20767;-75
2023/01/08 08:23:02;;;;;;;11.10;3.40;;;7.10;90.90;;;;;;5008711;28;20048;-75
2023/01/08 08:25:28;;;;;;;13.32;3.38;;;7.20;90.90;;;;;;5004616;28;20040;-75
2023/01/08 08:27:57;;;;;;;13.15;2.95;;;7.20;90.90;;;;;;5005172;28;20282;-75
2023/01/08 08:30:23;;;;;;;16.75;3.60;;;7.20;90.80;;;;;;5001884;28;20076;-75
2023/01/08 08:32:49;;;;;;;9.70;3.10;;;7.30;90.80;;;;;;5005925;28;20022;-75
2023/01/08 08:35:14;;;;;;;11.77;3.38;;;7.30;90.70;;;;;;5004714;28;20470;-73
2023/01/08 08:37:40;;;;;;;11.70;3.30;;;7.40;90.50;;;;;;5004554;28;20025;-73
2023/01/08 08:40:06;;;;;;;8.70;2.85;;;7.40;90.40;;;;;;5003615;28;20364;-74
2023/01/08 08:42:32;;;;;;;11.93;2.90;;;7.50;90.20;;;;;;5007796;28;20684;-73
2023/01/08 08:44:58;;;;;;;9.85;2.90;;;7.60;90.00;;;;;;5001676;28;20056;-73
2023/01/08 08:47:23;;;;;;;14.05;2.97;;;7.60;89.90;;;;;;5001846;28;20046;-74
2023/01/08 08:49:49;;;;;;;9.73;3.70;;;7.60;89.60;;;;;;5003143;28;20056;-73
2023/01/08 08:52:15;;;;;;;7.20;2.72;;;7.70;89.30;;;;;;5003263;28;20149;-73
2023/01/08 08:54:40;;;;;;;16.13;3.05;;;7.80;89.00;;;;;;5002607;28;20109;-74
2023/01/08 08:57:08;;;;;;;11.65;2.70;;;7.90;88.60;;;;;;5003962;28;20038;-73
2023/01/08 08:59:33;;;;;;;8.85;2.90;;;8.00;88.20;;;;;;5004945;28;20470;-73
2023/01/08 09:01:59;;;;;;;9.80;2.60;;;8.10;87.80;;;;;;4999478;28;20042;-73
2023/01/08 09:04:25;;;;;;;8.88;2.50;;;8.20;87.50;;;;;;5004194;28;20040;-73
2023/01/08 09:06:51;;;;;;;9.15;2.60;;;8.20;87.10;;;;;;5005529;28;20053;-73
2023/01/08 09:09:17;;;;;;;8.00;2.63;;;8.30;86.90;;;;;;4994470;28;20065;-74
2023/01/08 09:11:42;;;;;;;7.45;2.30;;;8.40;86.50;;;;;;5001364;28;20037;-74
2023/01/08 09:14:09;;;;;;;8.15;2.60;;;8.40;86.20;;;;;;5001399;28;20038;-73
2023/01/08 09:16:35;;;;;;;7.80;2.72;;;8.50;85.90;;;;;;5001897;28;20041;-73
2023/01/08 09:19:02;;;;;;;6.03;2.88;;;8.60;85.70;;;;;;4998450;28;20049;-74
2023/01/08 09:21:27;;;;;;;7.95;2.60;;;8.60;85.50;;;;;;5004815;28;20048;-73
2023/01/08 09:23:53;;;;;;;7.00;2.25;;;8.70;85.20;;;;;;5003739;28;20453;-74
2023/01/08 09:26:19;;;;;;;6.10;2.08;;;8.70;85.00;;;;;;5006240;28;20052;-74
2023/01/08 09:28:44;;;;;;;6.05;2.58;;;8.80;84.60;;;;;;5001319;28;20038;-74
2023/01/08 09:31:10;;;;;;;4.68;1.83;;;8.80;84.40;;;;;;5002386;28;20038;-76
2023/01/08 09:33:36;;;;;;;9.18;2.20;;;8.90;84.30;;;;;;5004745;28;20021;-74
2023/01/08 09:36:01;;;;;;;6.53;2.15;;;8.90;84.30;;;;;;5000986;28;20072;-75
2023/01/08 09:38:27;;;;;;;5.55;1.98;;;8.90;84.10;;;;;;5007623;28;20029;-74
2023/01/08 09:41:09;;;;;;;4.60;1.90;;;9.10;84.10;;;;;;4999097;28;20029;-74
2023/01/08 09:43:39;;;;;;;5.90;1.70;;;9.10;83.40;;;;;;5001875;28;20026;-74
2023/01/08 09:46:06;;;;;;;6.32;1.88;;;9.20;83.40;;;;;;4996768;28;20033;-75
2023/01/08 09:48:37;;;;;;;4.35;1.70;;;9.20;83.10;;;;;;5004654;28;21192;-75
2023/01/08 09:51:04;;;;;;;7.28;2.20;;;9.30;83.20;;;;;;5001017;28;20040;-74
2023/01/08 09:53:31;;;;;;;3.75;2.03;;;9.30;82.80;;;;;;5003628;28;20080;-75
2023/01/08 09:56:09;;;;;;;6.25;2.03;;;9.40;82.60;;;;;;4998864;28;20038;-75
2023/01/08 09:58:37;;;;;;;7.50;2.00;;;9.40;82.30;;;;;;5002119;28;20022;-75
2023/01/08 10:01:04;;;;;;;8.10;2.33;;;9.40;82.40;;;;;;5000150;28;20114;-74
2023/01/08 10:03:41;;;;;;;6.85;1.98;;;9.40;82.30;;;;;;5005692;28;20040;-74
2023/01/08 10:06:15;;;;;;;7.57;1.95;;;9.50;82.10;;;;;;5001698;28;20104;-76
2023/01/08 10:08:41;;;;;;;8.32;2.22;;;9.50;81.90;;;;;;5005525;28;20025;-75
2023/01/08 10:11:08;;;;;;;6.55;2.33;;;9.60;81.80;;;;;;5002464;28;20034;-75
2023/01/08 10:13:38;;;;;;;7.45;2.00;;;9.60;81.20;;;;;;5007872;28;20090;-75
2023/01/08 10:16:10;;;;;;;8.45;2.05;;;9.60;81.40;;;;;;4997050;28;20054;-76
2023/01/08 10:18:37;;;;;;;4.68;1.67;;;9.80;81.10;;;;;;4989966;28;20053;-75
2023/01/08 10:21:03;;;;;;;9.18;2.70;;;9.80;80.60;;;;;;4997299;28;20474;-75
2023/01/08 10:23:28;;;;;;;8.02;2.20;;;9.90;80.70;;;;;;4999795;28;20113;-76
2023/01/08 10:25:56;;;;;;;6.20;2.13;;;10.00;80.30;;;;;;4998161;28;20120;-75
2023/01/08 10:28:27;;;;;;;4.88;1.92;;;10.00;79.80;;;;;;5001800;28;20025;-75
2023/01/08 10:31:05;;;;;;;8.93;2.08;;;10.00;79.90;;;;;;4996929;28;20071;-75
2023/01/08 10:33:41;;;;;;;9.40;2.28;;;10.10;79.70;;;;;;5002252;28;20049;-75
2023/01/08 10:36:09;;;;;;;8.10;2.35;;;10.10;79.50;;;;;;5000143;28;20041;-76
2023/01/08 10:38:48;;;;;;;9.00;2.33;;;10.20;79.30;;;;;;5001925;28;20040;-76
2023/01/08 10:41:14;;;;;;;6.65;2.10;;;10.20;79.00;;;;;;5002530;28;20030;-75
2023/01/08 10:43:57;;;;;;;9.55;2.45;;;10.20;78.70;;;;;;5004490;28;20458;-77
2023/01/08 10:46:27;;;;;;;5.75;1.90;;;10.30;78.70;;;;;;4993058;28;20061;-76
2023/01/08 10:48:57;;;;;;;8.05;2.35;;;10.30;78.70;;;;;;4999682;28;20032;-75
2023/01/08 10:51:24;;;;;;;9.63;2.17;;;10.40;78.50;;;;;;5001869;28;20026;-75
2023/01/08 10:53:55;;;;;;;9.02;3.00;;;10.40;78.10;;;;;;5001799;28;20140;-75
2023/01/08 10:56:23;;;;;;;11.13;3.25;;;10.50;78.10;;;;;;5004499;28;20542;-75
2023/01/08 10:58:50;;;;;;;11.95;2.60;;;10.50;77.80;;;;;;4998097;28;20084;-76
2023/01/08 11:01:17;;;;;;;10.32;2.78;;;10.50;78.30;;;;;;5001388;28;20592;-76
2023/01/08 11:03:49;;;;;;;9.63;2.45;;;10.60;77.70;;;;;;5004010;28;20072;-76
2023/01/08 11:06:23;;;;;;;7.40;2.30;;;10.60;77.70;;;;;;5004401;28;20041;-75
2023/01/08 11:09:00;;;;;;;10.57;2.40;;;10.60;77.30;;;;;;5005544;28;20102;-76
2023/01/08 11:11:34;;;;;;;10.48;2.30;;;10.60;77.40;;;;;;5006735;28;20091;-76
2023/01/08 11:14:03;;;;;;;8.68;2.40;;;10.60;77.30;;;;;;5005412;28;20049;-75
2023/01/08 11:16:35;;;;;;;9.48;2.28;;;10.60;77.20;;;;;;5006618;28;20190;-76
2023/01/08 11:19:01;;;;;;;7.50;2.53;;;10.70;77.20;;;;;;5005195;28;20228;-76
2023/01/08 11:21:32;;;;;;;10.85;2.72;;;10.90;77.10;;;;;;5006491;28;20486;-76
2023/01/08 11:24:16;;;;;;;8.88;2.28;;;10.90;76.60;;;;;;5002637;28;20431;-76
2023/01/08 11:26:53;;;;;;;9.02;3.75;;;11.00;76.70;;;;;;5004999;28;20038;-75
2023/01/08 11:29:27;;;;;;;11.05;4.15;;;11.00;76.10;;;;;;5011524;28;20052;-76
2023/01/08 11:32:31;;;;;;;9.52;2.80;;;10.90;76.80;;;;;;4997663;28;20109;-76
2023/01/08 11:35:02;;;;;;;13.05;2.72;;;10.90;76.20;;;;;;4996264;28;20037;-76
2023/01/08 11:37:37;;;;;;;6.65;2.28;;;10.80;76.60;;;;;;5000643;28;20042;-76
2023/01/08 11:40:10;;;;;;;;;;;10.80;77.00;;;;;;4999711;28;20017;-76
2023/01/08 11:43:01;;;;;;;11.32;2.85;;;11.00;77.20;;;;;;5000887;28;20384;-76
2023/01/08 11:45:36;;;;;;;8.95;2.10;;;10.90;76.80;;;;;;4995943;28;20076;-76
2023/01/08 11:48:16;;;;;;;7.22;1.70;;;10.90;76.70;;;;;;4995904;28;20026;-76
2023/01/08 11:50:54;;;;;;;10.02;2.08;;;10.90;76.40;;;;;;5003379;28;20045;-77
2023/01/08 11:53:39;;;;;;;10.35;2.60;;;10.90;76.60;;;;;;5006196;28;20037;-76
2023/01/08 11:56:25;;;;;;;12.38;2.60;;;10.70;76.90;;;;;;5009565;28;20749;-74
2023/01/08 11:59:05;;;;;;;12.60;3.92;;;10.80;76.90;;;;;;5009241;28;20029;-77
2023/01/08 12:01:58;;;;;;;10.50;2.53;;;10.80;77.00;;;;;;4999344;28;20038;-79
2023/01/08 12:04:45;;;;;;;13.23;3.65;;;10.80;77.60;;;;;;4992007;28;20128;-74
2023/01/08 12:07:16;;;;;;;8.98;2.30;;;10.90;77.30;;;;;;4991333;28;20117;-73
2023/01/08 12:09:45;;;;;;;9.73;2.30;;;10.80;77.10;;;;;;5009200;28;20509;-75
2023/01/08 12:12:38;;;;;;;7.72;2.60;;;10.80;76.70;;;;;;5001742;28;20040;-73
2023/01/08 12:15:11;;;;;;;9.35;2.58;;;10.80;77.00;;;;;;4998477;28;20041;-73
2023/01/08 12:18:02;;;;;;;9.95;3.15;;;11.00;76.50;;;;;;4995973;28;20200;-74
2023/01/08 12:20:56;;;;;;;7.70;2.17;;;10.90;76.20;;;;;;4998602;28;20025;-74
2023/01/08 12:23:54;;;;;;;11.90;2.63;;;11.00;76.50;;;;;;4995822;28;20046;-75
2023/01/08 12:26:48;;;;;;;8.75;1.73;;;11.10;76.30;;;;;;4992795;28;20849;-74
2023/01/08 12:29:54;;;;;;;7.43;2.20;;;10.90;76.00;;;;;;4994981;28;20061;-73
2023/01/08 12:32:26;;;;;;;10.25;2.28;;;10.80;76.20;;;;;;4983748;28;20042;-74
2023/01/08 12:35:18;;;;;;;12.02;2.35;;;10.70;76.80;;;;;;4976620;28;20509;-74
2023/01/08 12:38:10;;;;;;;20.88;7.28;;;10.70;77.00;;;;;;4977334;28;20061;-74
2023/01/08 12:40:44;;;;;;;8.88;2.20;;;10.70;76.80;;;;;;4977228;28;20037;-74
2023/01/08 12:43:24;;;;;;;11.82;2.92;;;10.70;77.00;;;;;;4978075;28;20985;-74
2023/01/08 12:45:53;;;;;;;7.57;2.70;;;10.70;77.00;;;;;;4975308;28;20046;-75
2023/01/08 12:48:33;;;;;;;10.75;2.63;;;10.60;77.30;;;;;;4974196;28;20037;-73
2023/01/08 12:51:02;;;;;;;11.52;2.42;;;10.60;77.70;;;;;;4974708;28;20126;-73
2023/01/08 12:53:33;;;;;;;8.82;2.55;;;10.70;77.60;;;;;;4973213;28;20062;-75
2023/01/08 12:56:34;;;;;;;11.52;2.97;;;10.70;77.40;;;;;;4975753;28;20042;-74
2023/01/08 12:59:29;;;;;;;10.57;3.20;;;10.60;77.10;;;;;;4978864;28;20046;-74
2023/01/08 13:02:32;;;;;;;9.17;2.63;;;10.60;77.10;;;;;;4977674;28;20042;-76